sensor_id;sensor_type;location;lat;lon;timestamp;temperature;humidity
10270;DHT22;5180;50.832;5.390;2022-11-04T00:01:56;10.50;99.90
10270;DHT22;5180;50.832;5.390;2022-11-04T00:04:24;10.60;99.90
10270;DHT22;5180;50.832;5.390;2022-11-04T00:06:50;10.50;99.90
10270;DHT22;5180;50.832;5.390;2022-11-04T00:09:19;10.50;99.90
10270;DHT22;5180;50.832;5.390;2022-11-04T00:11:45;10.50;99.90
10270;DHT22;5180;50.832;5.390;2022-11-04T00:14:30;10.40;99.90
10270;DHT22;5180;50.832;5.390;2022-11-04T00:16:57;10.40;99.90
10270;DHT22;5180;50.832;5.390;2022-11-04T00:19:41;10.40;99.90
10270;DHT22;5180;50.832;5.390;2022-11-04T00:22:25;10.30;99.90
10270;DHT22;5180;50.832;5.390;2022-11-04T00:25:10;10.30;99.90
10270;DHT22;5180;50.832;5.390;2022-11-04T00:28:15;10.30;99.90
10270;DHT22;5180;50.832;5.390;2022-11-04T00:31:00;10.30;99.90
10270;DHT22;5180;50.832;5.390;2022-11-04T00:33:48;10.20;99.90
10270;DHT22;5180;50.832;5.390;2022-11-04T00:36:15;10.20;99.90
10270;DHT22;5180;50.832;5.390;2022-11-04T00:38:41;10.20;99.90
10270;DHT22;5180;50.832;5.390;2022-11-04T00:41:08;10.10;99.90
10270;DHT22;5180;50.832;5.390;2022-11-04T00:44:01;10.10;99.90
10270;DHT22;5180;50.832;5.390;2022-11-04T00:46:28;10.10;99.90
10270;DHT22;5180;50.832;5.390;2022-11-04T00:48:54;10.10;99.90
10270;DHT22;5180;50.832;5.390;2022-11-04T00:51:20;10.10;99.90
10270;DHT22;5180;50.832;5.390;2022-11-04T00:53:47;10.10;99.90
10270;DHT22;5180;50.832;5.390;2022-11-04T00:56:12;10.10;99.90
10270;DHT22;5180;50.832;5.390;2022-11-04T00:58:38;10.10;99.90
10270;DHT22;5180;50.832;5.390;2022-11-04T01:01:12;10.00;99.90
10270;DHT22;5180;50.832;5.390;2022-11-04T01:03:42;10.00;99.90
10270;DHT22;5180;50.832;5.390;2022-11-04T01:06:08;9.90;99.90
10270;DHT22;5180;50.832;5.390;2022-11-04T01:08:33;9.90;99.90
10270;DHT22;5180;50.832;5.390;2022-11-04T01:11:03;9.80;99.90
10270;DHT22;5180;50.832;5.390;2022-11-04T01:13:30;9.80;99.90
10270;DHT22;5180;50.832;5.390;2022-11-04T01:15:59;9.70;99.90
10270;DHT22;5180;50.832;5.390;2022-11-04T01:18:25;9.60;99.90
10270;DHT22;5180;50.832;5.390;2022-11-04T01:20:51;9.60;99.90
10270;DHT22;5180;50.832;5.390;2022-11-04T01:23:16;9.50;99.90
10270;DHT22;5180;50.832;5.390;2022-11-04T01:25:42;9.50;99.90
10270;DHT22;5180;50.832;5.390;2022-11-04T01:28:08;9.50;99.90
10270;DHT22;5180;50.832;5.390;2022-11-04T01:30:34;9.50;99.90
10270;DHT22;5180;50.832;5.390;2022-11-04T01:33:02;9.40;99.90
10270;DHT22;5180;50.832;5.390;2022-11-04T01:35:27;9.40;99.90
10270;DHT22;5180;50.832;5.390;2022-11-04T01:37:53;9.40;99.90
10270;DHT22;5180;50.832;5.390;2022-11-04T01:40:18;9.40;99.90
10270;DHT22;5180;50.832;5.390;2022-11-04T01:42:44;9.40;99.90
10270;DHT22;5180;50.832;5.390;2022-11-04T01:45:15;9.40;99.90
10270;DHT22;5180;50.832;5.390;2022-11-04T01:47:46;9.40;99.90
10270;DHT22;5180;50.832;5.390;2022-11-04T01:50:24;9.40;99.90
10270;DHT22;5180;50.832;5.390;2022-11-04T01:53:09;9.40;99.90
10270;DHT22;5180;50.832;5.390;2022-11-04T01:55:43;9.40;99.90
10270;DHT22;5180;50.832;5.390;2022-11-04T01:58:14;9.50;99.90
10270;DHT22;5180;50.832;5.390;2022-11-04T02:00:42;9.50;99.90
10270;DHT22;5180;50.832;5.390;2022-11-04T02:03:18;9.50;99.90
10270;DHT22;5180;50.832;5.390;2022-11-04T02:05:45;9.50;99.90
10270;DHT22;5180;50.832;5.390;2022-11-04T02:08:13;9.50;99.90
10270;DHT22;5180;50.832;5.390;2022-11-04T02:10:41;9.60;99.90
10270;DHT22;5180;50.832;5.390;2022-11-04T02:13:08;9.60;99.90
10270;DHT22;5180;50.832;5.390;2022-11-04T02:15:54;9.70;99.90
10270;DHT22;5180;50.832;5.390;2022-11-04T02:18:35;9.70;99.90
10270;DHT22;5180;50.832;5.390;2022-11-04T02:30:11;9.60;99.90
10270;DHT22;5180;50.832;5.390;2022-11-04T02:35:47;9.60;99.90
10270;DHT22;5180;50.832;5.390;2022-11-04T02:38:43;9.60;99.90
10270;DHT22;5180;50.832;5.390;2022-11-04T02:44:12;9.50;99.90
10270;DHT22;5180;50.832;5.390;2022-11-04T02:46:54;9.50;99.90
10270;DHT22;5180;50.832;5.390;2022-11-04T02:49:45;9.40;99.90
10270;DHT22;5180;50.832;5.390;2022-11-04T02:52:15;9.40;99.90
10270;DHT22;5180;50.832;5.390;2022-11-04T02:57:15;9.40;99.90
10270;DHT22;5180;50.832;5.390;2022-11-04T02:59:53;9.40;99.90
10270;DHT22;5180;50.832;5.390;2022-11-04T03:02:29;9.40;99.90
10270;DHT22;5180;50.832;5.390;2022-11-04T03:04:58;9.30;99.90
10270;DHT22;5180;50.832;5.390;2022-11-04T03:07:31;9.30;99.90
10270;DHT22;5180;50.832;5.390;2022-11-04T03:10:01;9.20;99.90
10270;DHT22;5180;50.832;5.390;2022-11-04T03:12:36;9.30;99.90
10270;DHT22;5180;50.832;5.390;2022-11-04T03:15:06;9.30;99.90
10270;DHT22;5180;50.832;5.390;2022-11-04T03:18:00;9.30;99.90
10270;DHT22;5180;50.832;5.390;2022-11-04T03:20:27;9.30;99.90
10270;DHT22;5180;50.832;5.390;2022-11-04T03:22:56;9.30;99.90
10270;DHT22;5180;50.832;5.390;2022-11-04T03:25:39;9.30;99.90
10270;DHT22;5180;50.832;5.390;2022-11-04T03:30:46;9.30;99.90
10270;DHT22;5180;50.832;5.390;2022-11-04T03:33:25;9.30;99.90
10270;DHT22;5180;50.832;5.390;2022-11-04T03:35:51;9.40;99.90
10270;DHT22;5180;50.832;5.390;2022-11-04T03:38:17;9.30;99.90
10270;DHT22;5180;50.832;5.390;2022-11-04T03:40:43;9.30;99.90
10270;DHT22;5180;50.832;5.390;2022-11-04T03:43:12;9.20;99.90
10270;DHT22;5180;50.832;5.390;2022-11-04T03:45:40;9.10;99.90
10270;DHT22;5180;50.832;5.390;2022-11-04T03:48:06;9.10;99.90
10270;DHT22;5180;50.832;5.390;2022-11-04T03:50:39;9.00;99.90
10270;DHT22;5180;50.832;5.390;2022-11-04T03:53:04;8.90;99.90
10270;DHT22;5180;50.832;5.390;2022-11-04T04:01:06;8.90;99.90
10270;DHT22;5180;50.832;5.390;2022-11-04T04:03:45;8.90;99.90
10270;DHT22;5180;50.832;5.390;2022-11-04T04:06:18;8.90;99.90
10270;DHT22;5180;50.832;5.390;2022-11-04T04:14:39;8.80;99.90
10270;DHT22;5180;50.832;5.390;2022-11-04T04:17:38;8.80;99.90
10270;DHT22;5180;50.832;5.390;2022-11-04T04:20:11;8.70;99.90
10270;DHT22;5180;50.832;5.390;2022-11-04T04:22:51;8.70;99.90
10270;DHT22;5180;50.832;5.390;2022-11-04T04:25:19;8.70;99.90
10270;DHT22;5180;50.832;5.390;2022-11-04T04:28:05;8.60;99.90
10270;DHT22;5180;50.832;5.390;2022-11-04T04:30:31;8.60;99.90
10270;DHT22;5180;50.832;5.390;2022-11-04T04:33:17;8.50;99.90
10270;DHT22;5180;50.832;5.390;2022-11-04T04:35:50;8.50;99.90
10270;DHT22;5180;50.832;5.390;2022-11-04T04:38:25;8.40;99.90
10270;DHT22;5180;50.832;5.390;2022-11-04T04:41:22;8.30;99.90
10270;DHT22;5180;50.832;5.390;2022-11-04T04:44:26;8.20;99.90
10270;DHT22;5180;50.832;5.390;2022-11-04T04:47:14;8.20;99.90
10270;DHT22;5180;50.832;5.390;2022-11-04T04:49:55;8.10;99.90
10270;DHT22;5180;50.832;5.390;2022-11-04T04:52:23;8.20;99.90
10270;DHT22;5180;50.832;5.390;2022-11-04T04:54:49;8.10;99.90
10270;DHT22;5180;50.832;5.390;2022-11-04T04:57:15;8.20;99.90
10270;DHT22;5180;50.832;5.390;2022-11-04T04:59:41;8.30;99.90
10270;DHT22;5180;50.832;5.390;2022-11-04T05:02:06;8.40;99.90
10270;DHT22;5180;50.832;5.390;2022-11-04T05:04:32;8.50;99.90
10270;DHT22;5180;50.832;5.390;2022-11-04T05:06:58;8.60;99.90
10270;DHT22;5180;50.832;5.390;2022-11-04T05:09:23;8.60;99.90
10270;DHT22;5180;50.832;5.390;2022-11-04T05:11:49;8.80;99.90
10270;DHT22;5180;50.832;5.390;2022-11-04T05:14:14;8.90;99.90
10270;DHT22;5180;50.832;5.390;2022-11-04T05:16:40;9.00;99.90
10270;DHT22;5180;50.832;5.390;2022-11-04T05:19:05;9.10;99.90
10270;DHT22;5180;50.832;5.390;2022-11-04T05:21:31;9.20;99.90
10270;DHT22;5180;50.832;5.390;2022-11-04T05:23:57;9.20;99.90
10270;DHT22;5180;50.832;5.390;2022-11-04T05:26:22;9.30;99.90
10270;DHT22;5180;50.832;5.390;2022-11-04T05:28:48;9.40;99.90
10270;DHT22;5180;50.832;5.390;2022-11-04T05:31:13;9.50;99.90
10270;DHT22;5180;50.832;5.390;2022-11-04T05:33:39;9.60;99.90
10270;DHT22;5180;50.832;5.390;2022-11-04T05:36:12;9.70;99.90
10270;DHT22;5180;50.832;5.390;2022-11-04T05:38:39;9.80;99.90
10270;DHT22;5180;50.832;5.390;2022-11-04T05:41:06;9.80;99.90
10270;DHT22;5180;50.832;5.390;2022-11-04T05:43:33;9.90;99.90
10270;DHT22;5180;50.832;5.390;2022-11-04T05:46:00;10.00;99.90
10270;DHT22;5180;50.832;5.390;2022-11-04T05:48:26;10.00;99.90
10270;DHT22;5180;50.832;5.390;2022-11-04T05:50:52;10.00;99.90
10270;DHT22;5180;50.832;5.390;2022-11-04T05:53:17;10.10;99.90
10270;DHT22;5180;50.832;5.390;2022-11-04T05:55:43;10.10;99.90
10270;DHT22;5180;50.832;5.390;2022-11-04T05:58:08;10.10;99.90
10270;DHT22;5180;50.832;5.390;2022-11-04T06:00:34;10.10;99.90
10270;DHT22;5180;50.832;5.390;2022-11-04T06:03:00;10.10;99.90
10270;DHT22;5180;50.832;5.390;2022-11-04T06:05:26;10.10;99.90
10270;DHT22;5180;50.832;5.390;2022-11-04T06:07:52;10.20;99.90
10270;DHT22;5180;50.832;5.390;2022-11-04T06:10:18;10.20;99.90
10270;DHT22;5180;50.832;5.390;2022-11-04T06:12:44;10.20;99.90
10270;DHT22;5180;50.832;5.390;2022-11-04T06:15:10;10.20;99.90
10270;DHT22;5180;50.832;5.390;2022-11-04T06:17:36;10.20;99.90
10270;DHT22;5180;50.832;5.390;2022-11-04T06:20:02;10.30;99.90
10270;DHT22;5180;50.832;5.390;2022-11-04T06:22:28;10.30;99.90
10270;DHT22;5180;50.832;5.390;2022-11-04T06:24:54;10.30;99.90
10270;DHT22;5180;50.832;5.390;2022-11-04T06:27:19;10.30;99.90
10270;DHT22;5180;50.832;5.390;2022-11-04T06:29:45;10.40;99.90
10270;DHT22;5180;50.832;5.390;2022-11-04T06:32:14;10.40;99.90
10270;DHT22;5180;50.832;5.390;2022-11-04T06:34:40;10.40;99.90
10270;DHT22;5180;50.832;5.390;2022-11-04T06:37:06;10.40;99.90
10270;DHT22;5180;50.832;5.390;2022-11-04T06:39:32;10.40;99.90
10270;DHT22;5180;50.832;5.390;2022-11-04T06:41:57;10.40;99.90
10270;DHT22;5180;50.832;5.390;2022-11-04T06:44:23;10.50;99.90
10270;DHT22;5180;50.832;5.390;2022-11-04T06:46:49;10.50;99.90
10270;DHT22;5180;50.832;5.390;2022-11-04T06:49:17;10.50;99.90
10270;DHT22;5180;50.832;5.390;2022-11-04T06:51:44;10.60;99.90
10270;DHT22;5180;50.832;5.390;2022-11-04T06:54:10;10.60;99.90
10270;DHT22;5180;50.832;5.390;2022-11-04T06:56:36;10.60;99.90
10270;DHT22;5180;50.832;5.390;2022-11-04T06:59:02;10.70;99.90
10270;DHT22;5180;50.832;5.390;2022-11-04T07:01:32;10.70;99.90
10270;DHT22;5180;50.832;5.390;2022-11-04T07:03:59;10.80;99.90
10270;DHT22;5180;50.832;5.390;2022-11-04T07:06:26;10.80;99.90
10270;DHT22;5180;50.832;5.390;2022-11-04T07:08:52;10.80;99.90
10270;DHT22;5180;50.832;5.390;2022-11-04T07:11:20;10.80;99.90
10270;DHT22;5180;50.832;5.390;2022-11-04T07:13:47;10.90;99.90
10270;DHT22;5180;50.832;5.390;2022-11-04T07:16:15;10.90;99.90
10270;DHT22;5180;50.832;5.390;2022-11-04T07:18:41;10.90;99.90
10270;DHT22;5180;50.832;5.390;2022-11-04T07:21:06;10.90;99.90
10270;DHT22;5180;50.832;5.390;2022-11-04T07:23:32;10.90;99.90
10270;DHT22;5180;50.832;5.390;2022-11-04T07:26:03;10.80;99.90
10270;DHT22;5180;50.832;5.390;2022-11-04T07:28:28;10.80;99.90
10270;DHT22;5180;50.832;5.390;2022-11-04T07:30:59;10.80;99.90
10270;DHT22;5180;50.832;5.390;2022-11-04T07:33:25;10.90;99.90
10270;DHT22;5180;50.832;5.390;2022-11-04T07:35:52;10.80;99.90
10270;DHT22;5180;50.832;5.390;2022-11-04T07:38:19;10.90;99.90
10270;DHT22;5180;50.832;5.390;2022-11-04T07:40:45;10.90;99.90
10270;DHT22;5180;50.832;5.390;2022-11-04T07:43:11;10.90;99.90
10270;DHT22;5180;50.832;5.390;2022-11-04T07:45:37;11.00;99.90
10270;DHT22;5180;50.832;5.390;2022-11-04T07:48:03;11.10;99.90
10270;DHT22;5180;50.832;5.390;2022-11-04T07:50:28;11.20;99.90
10270;DHT22;5180;50.832;5.390;2022-11-04T07:52:54;11.20;99.90
10270;DHT22;5180;50.832;5.390;2022-11-04T07:55:20;11.30;99.90
10270;DHT22;5180;50.832;5.390;2022-11-04T07:57:46;11.30;99.90
10270;DHT22;5180;50.832;5.390;2022-11-04T08:00:13;11.40;99.90
10270;DHT22;5180;50.832;5.390;2022-11-04T08:02:40;11.50;99.90
10270;DHT22;5180;50.832;5.390;2022-11-04T08:05:07;11.50;99.90
10270;DHT22;5180;50.832;5.390;2022-11-04T08:07:32;11.50;99.90
10270;DHT22;5180;50.832;5.390;2022-11-04T08:09:58;11.50;99.90
10270;DHT22;5180;50.832;5.390;2022-11-04T08:12:24;11.60;99.90
10270;DHT22;5180;50.832;5.390;2022-11-04T08:14:50;11.70;99.90
10270;DHT22;5180;50.832;5.390;2022-11-04T08:17:16;11.80;99.90
10270;DHT22;5180;50.832;5.390;2022-11-04T08:19:41;12.00;99.90
10270;DHT22;5180;50.832;5.390;2022-11-04T08:22:07;12.10;99.90
10270;DHT22;5180;50.832;5.390;2022-11-04T08:24:33;12.30;99.90
10270;DHT22;5180;50.832;5.390;2022-11-04T08:27:00;12.40;99.90
10270;DHT22;5180;50.832;5.390;2022-11-04T08:29:25;12.40;99.90
10270;DHT22;5180;50.832;5.390;2022-11-04T08:31:51;12.40;99.90
10270;DHT22;5180;50.832;5.390;2022-11-04T08:34:16;12.40;99.90
10270;DHT22;5180;50.832;5.390;2022-11-04T08:36:43;12.30;99.90
10270;DHT22;5180;50.832;5.390;2022-11-04T08:39:10;12.30;99.90
10270;DHT22;5180;50.832;5.390;2022-11-04T08:41:37;12.30;99.90
10270;DHT22;5180;50.832;5.390;2022-11-04T08:44:05;12.40;99.90
10270;DHT22;5180;50.832;5.390;2022-11-04T08:46:36;12.50;99.90
10270;DHT22;5180;50.832;5.390;2022-11-04T08:49:03;12.60;99.90
10270;DHT22;5180;50.832;5.390;2022-11-04T08:51:31;12.80;99.90
10270;DHT22;5180;50.832;5.390;2022-11-04T08:53:57;12.80;99.90
10270;DHT22;5180;50.832;5.390;2022-11-04T08:56:32;12.80;99.90
10270;DHT22;5180;50.832;5.390;2022-11-04T08:58:59;12.80;99.90
10270;DHT22;5180;50.832;5.390;2022-11-04T09:01:25;12.60;99.90
10270;DHT22;5180;50.832;5.390;2022-11-04T09:03:51;12.50;99.90
10270;DHT22;5180;50.832;5.390;2022-11-04T09:06:37;12.50;99.90
10270;DHT22;5180;50.832;5.390;2022-11-04T09:09:05;12.40;99.90
10270;DHT22;5180;50.832;5.390;2022-11-04T09:11:33;12.40;99.90
10270;DHT22;5180;50.832;5.390;2022-11-04T09:14:02;12.30;99.90
10270;DHT22;5180;50.832;5.390;2022-11-04T09:16:30;12.30;99.90
10270;DHT22;5180;50.832;5.390;2022-11-04T09:18:56;12.30;99.90
10270;DHT22;5180;50.832;5.390;2022-11-04T09:21:23;12.30;99.90
10270;DHT22;5180;50.832;5.390;2022-11-04T09:23:49;12.40;99.90
10270;DHT22;5180;50.832;5.390;2022-11-04T09:26:15;12.40;99.90
10270;DHT22;5180;50.832;5.390;2022-11-04T09:28:42;12.50;99.90
10270;DHT22;5180;50.832;5.390;2022-11-04T09:31:10;12.50;99.90
10270;DHT22;5180;50.832;5.390;2022-11-04T09:33:37;12.70;99.90
10270;DHT22;5180;50.832;5.390;2022-11-04T09:36:03;12.80;99.90
10270;DHT22;5180;50.832;5.390;2022-11-04T09:38:29;12.90;99.90
10270;DHT22;5180;50.832;5.390;2022-11-04T09:40:55;13.20;99.90
10270;DHT22;5180;50.832;5.390;2022-11-04T09:46:04;13.70;99.90
10270;DHT22;5180;50.832;5.390;2022-11-04T09:48:32;13.70;99.90
10270;DHT22;5180;50.832;5.390;2022-11-04T09:51:01;13.90;99.90
10270;DHT22;5180;50.832;5.390;2022-11-04T09:55:56;14.30;99.90
10270;DHT22;5180;50.832;5.390;2022-11-04T09:58:24;14.50;99.90
10270;DHT22;5180;50.832;5.390;2022-11-04T10:01:17;14.50;99.90
10270;DHT22;5180;50.832;5.390;2022-11-04T10:07:19;14.60;99.90
10270;DHT22;5180;50.832;5.390;2022-11-04T10:15:13;15.00;99.90
10270;DHT22;5180;50.832;5.390;2022-11-04T10:17:58;15.30;99.90
10270;DHT22;5180;50.832;5.390;2022-11-04T10:23:06;15.70;99.90
10270;DHT22;5180;50.832;5.390;2022-11-04T10:28:25;15.90;99.90
10270;DHT22;5180;50.832;5.390;2022-11-04T10:30:53;16.00;99.90
10270;DHT22;5180;50.832;5.390;2022-11-04T10:35:46;16.20;99.90
10270;DHT22;5180;50.832;5.390;2022-11-04T10:38:21;16.50;99.90
10270;DHT22;5180;50.832;5.390;2022-11-04T10:40:51;16.60;99.90
10270;DHT22;5180;50.832;5.390;2022-11-04T10:43:33;16.90;99.90
10270;DHT22;5180;50.832;5.390;2022-11-04T10:51:44;17.80;99.90
10270;DHT22;5180;50.832;5.390;2022-11-04T10:54:10;17.90;99.90
10270;DHT22;5180;50.832;5.390;2022-11-04T10:56:41;18.00;99.90
10270;DHT22;5180;50.832;5.390;2022-11-04T10:59:31;18.20;99.90
10270;DHT22;5180;50.832;5.390;2022-11-04T11:02:02;18.20;99.90
10270;DHT22;5180;50.832;5.390;2022-11-04T11:04:32;18.20;99.90
10270;DHT22;5180;50.832;5.390;2022-11-04T11:07:01;17.90;99.90
10270;DHT22;5180;50.832;5.390;2022-11-04T11:09:29;17.60;99.90
10270;DHT22;5180;50.832;5.390;2022-11-04T11:12:00;17.30;99.90
10270;DHT22;5180;50.832;5.390;2022-11-04T11:17:19;16.90;99.90
10270;DHT22;5180;50.832;5.390;2022-11-04T11:22:34;16.40;99.90
10270;DHT22;5180;50.832;5.390;2022-11-04T11:25:28;16.20;99.90
10270;DHT22;5180;50.832;5.390;2022-11-04T11:28:04;16.00;99.90
10270;DHT22;5180;50.832;5.390;2022-11-04T11:35:55;15.60;99.90
10270;DHT22;5180;50.832;5.390;2022-11-04T11:38:27;15.40;99.90
10270;DHT22;5180;50.832;5.390;2022-11-04T11:41:09;15.40;99.90
10270;DHT22;5180;50.832;5.390;2022-11-04T11:43:39;15.40;99.90
10270;DHT22;5180;50.832;5.390;2022-11-04T11:46:05;15.50;99.90
10270;DHT22;5180;50.832;5.390;2022-11-04T11:51:03;15.60;99.90
10270;DHT22;5180;50.832;5.390;2022-11-04T11:53:29;15.60;99.90
10270;DHT22;5180;50.832;5.390;2022-11-04T11:56:06;15.60;99.90
10270;DHT22;5180;50.832;5.390;2022-11-04T11:58:41;15.70;99.90
10270;DHT22;5180;50.832;5.390;2022-11-04T12:01:17;15.70;99.90
10270;DHT22;5180;50.832;5.390;2022-11-04T12:03:47;15.60;99.90
10270;DHT22;5180;50.832;5.390;2022-11-04T12:14:35;15.20;99.90
10270;DHT22;5180;50.832;5.390;2022-11-04T12:17:26;15.10;99.90
10270;DHT22;5180;50.832;5.390;2022-11-04T12:23:09;14.80;99.90
10270;DHT22;5180;50.832;5.390;2022-11-04T12:28:22;14.50;99.90
10270;DHT22;5180;50.832;5.390;2022-11-04T12:33:46;14.30;99.90
10270;DHT22;5180;50.832;5.390;2022-11-04T12:36:29;14.20;99.90
10270;DHT22;5180;50.832;5.390;2022-11-04T12:44:43;14.10;99.90
10270;DHT22;5180;50.832;5.390;2022-11-04T12:47:31;14.20;99.90
10270;DHT22;5180;50.832;5.390;2022-11-04T12:50:13;14.20;99.90
10270;DHT22;5180;50.832;5.390;2022-11-04T13:01:49;14.40;99.90
10270;DHT22;5180;50.832;5.390;2022-11-04T13:04:20;14.50;99.90
10270;DHT22;5180;50.832;5.390;2022-11-04T13:09:17;14.80;99.90
10270;DHT22;5180;50.832;5.390;2022-11-04T13:11:54;14.90;99.90
10270;DHT22;5180;50.832;5.390;2022-11-04T13:14:25;15.10;99.90
10270;DHT22;5180;50.832;5.390;2022-11-04T13:16:59;15.10;99.90
10270;DHT22;5180;50.832;5.390;2022-11-04T13:19:35;15.10;99.90
10270;DHT22;5180;50.832;5.390;2022-11-04T13:22:06;15.10;99.90
10270;DHT22;5180;50.832;5.390;2022-11-04T13:24:37;15.10;99.90
10270;DHT22;5180;50.832;5.390;2022-11-04T13:27:12;15.10;99.90
10270;DHT22;5180;50.832;5.390;2022-11-04T13:29:41;15.10;99.90
10270;DHT22;5180;50.832;5.390;2022-11-04T13:35:04;15.00;99.90
10270;DHT22;5180;50.832;5.390;2022-11-04T13:37:41;15.00;99.90
10270;DHT22;5180;50.832;5.390;2022-11-04T13:40:19;15.00;99.90
10270;DHT22;5180;50.832;5.390;2022-11-04T13:45:55;15.10;99.90
10270;DHT22;5180;50.832;5.390;2022-11-04T13:48:26;15.10;99.90
10270;DHT22;5180;50.832;5.390;2022-11-04T13:51:02;15.20;99.90
10270;DHT22;5180;50.832;5.390;2022-11-04T13:53:43;15.20;99.90
10270;DHT22;5180;50.832;5.390;2022-11-04T13:56:37;15.20;99.90
10270;DHT22;5180;50.832;5.390;2022-11-04T13:59:20;15.20;99.90
10270;DHT22;5180;50.832;5.390;2022-11-04T14:01:47;15.30;99.90
10270;DHT22;5180;50.832;5.390;2022-11-04T14:14:52;15.20;99.90
10270;DHT22;5180;50.832;5.390;2022-11-04T14:20:09;15.10;99.90
10270;DHT22;5180;50.832;5.390;2022-11-04T14:23:01;15.00;99.90
10270;DHT22;5180;50.832;5.390;2022-11-04T14:25:36;15.00;99.90
10270;DHT22;5180;50.832;5.390;2022-11-04T14:38:57;14.60;99.90
10270;DHT22;5180;50.832;5.390;2022-11-04T14:43:54;14.60;99.90
10270;DHT22;5180;50.832;5.390;2022-11-04T14:46:25;14.60;99.90
10270;DHT22;5180;50.832;5.390;2022-11-04T14:48:54;14.50;99.90
10270;DHT22;5180;50.832;5.390;2022-11-04T14:51:27;14.50;99.90
10270;DHT22;5180;50.832;5.390;2022-11-04T14:54:19;14.40;99.90
10270;DHT22;5180;50.832;5.390;2022-11-04T14:56:45;14.50;99.90
10270;DHT22;5180;50.832;5.390;2022-11-04T14:59:21;14.50;99.90
10270;DHT22;5180;50.832;5.390;2022-11-04T15:01:47;14.50;99.90
10270;DHT22;5180;50.832;5.390;2022-11-04T15:04:25;14.60;99.90
10270;DHT22;5180;50.832;5.390;2022-11-04T15:06:56;14.50;99.90
10270;DHT22;5180;50.832;5.390;2022-11-04T15:09:28;14.50;99.90
10270;DHT22;5180;50.832;5.390;2022-11-04T15:12:26;14.40;99.90
10270;DHT22;5180;50.832;5.390;2022-11-04T15:18:13;14.20;99.90
10270;DHT22;5180;50.832;5.390;2022-11-04T15:20:52;14.20;99.90
10270;DHT22;5180;50.832;5.390;2022-11-04T15:23:41;14.10;99.90
10270;DHT22;5180;50.832;5.390;2022-11-04T15:26:21;14.00;99.90
10270;DHT22;5180;50.832;5.390;2022-11-04T15:28:48;13.90;99.90
10270;DHT22;5180;50.832;5.390;2022-11-04T15:31:17;13.80;99.90
10270;DHT22;5180;50.832;5.390;2022-11-04T15:33:51;13.70;99.90
10270;DHT22;5180;50.832;5.390;2022-11-04T15:36:22;13.40;99.90
10270;DHT22;5180;50.832;5.390;2022-11-04T15:39:12;13.10;99.90
10270;DHT22;5180;50.832;5.390;2022-11-04T15:41:40;12.80;99.90
10270;DHT22;5180;50.832;5.390;2022-11-04T15:44:30;12.60;99.90
10270;DHT22;5180;50.832;5.390;2022-11-04T15:47:03;12.50;99.90
10270;DHT22;5180;50.832;5.390;2022-11-04T15:49:49;12.40;99.90
10270;DHT22;5180;50.832;5.390;2022-11-04T15:52:24;12.40;99.90
10270;DHT22;5180;50.832;5.390;2022-11-04T15:54:55;12.30;99.90
10270;DHT22;5180;50.832;5.390;2022-11-04T16:02:33;12.20;99.90
10270;DHT22;5180;50.832;5.390;2022-11-04T16:07:34;12.00;99.90
10270;DHT22;5180;50.832;5.390;2022-11-04T16:10:00;11.90;99.90
10270;DHT22;5180;50.832;5.390;2022-11-04T16:12:34;11.70;99.90
10270;DHT22;5180;50.832;5.390;2022-11-04T16:15:00;11.70;99.90
10270;DHT22;5180;50.832;5.390;2022-11-04T16:17:27;11.60;99.90
10270;DHT22;5180;50.832;5.390;2022-11-04T16:20:04;11.60;99.90
10270;DHT22;5180;50.832;5.390;2022-11-04T16:22:34;11.60;99.90
10270;DHT22;5180;50.832;5.390;2022-11-04T16:25:03;11.60;99.90
10270;DHT22;5180;50.832;5.390;2022-11-04T16:27:32;11.60;99.90
10270;DHT22;5180;50.832;5.390;2022-11-04T16:30:06;11.60;99.90
10270;DHT22;5180;50.832;5.390;2022-11-04T16:32:43;11.60;99.90
10270;DHT22;5180;50.832;5.390;2022-11-04T16:35:21;11.60;99.90
10270;DHT22;5180;50.832;5.390;2022-11-04T16:37:49;11.60;99.90
10270;DHT22;5180;50.832;5.390;2022-11-04T16:40:15;11.60;99.90
10270;DHT22;5180;50.832;5.390;2022-11-04T16:42:42;11.60;99.90
10270;DHT22;5180;50.832;5.390;2022-11-04T16:45:16;11.60;99.90
10270;DHT22;5180;50.832;5.390;2022-11-04T16:47:44;11.60;99.90
10270;DHT22;5180;50.832;5.390;2022-11-04T16:50:14;11.60;99.90
10270;DHT22;5180;50.832;5.390;2022-11-04T16:52:40;11.70;99.90
10270;DHT22;5180;50.832;5.390;2022-11-04T16:55:07;11.60;99.90
10270;DHT22;5180;50.832;5.390;2022-11-04T16:57:33;11.60;99.90
10270;DHT22;5180;50.832;5.390;2022-11-04T16:59:59;11.50;99.90
10270;DHT22;5180;50.832;5.390;2022-11-04T17:02:32;11.50;99.90
10270;DHT22;5180;50.832;5.390;2022-11-04T17:05:03;11.50;99.90
10270;DHT22;5180;50.832;5.390;2022-11-04T17:07:29;11.50;99.90
10270;DHT22;5180;50.832;5.390;2022-11-04T17:09:55;11.50;99.90
10270;DHT22;5180;50.832;5.390;2022-11-04T17:12:20;11.50;99.90
10270;DHT22;5180;50.832;5.390;2022-11-04T17:14:46;11.50;99.90
10270;DHT22;5180;50.832;5.390;2022-11-04T17:17:12;11.40;99.90
10270;DHT22;5180;50.832;5.390;2022-11-04T17:19:37;11.50;99.90
10270;DHT22;5180;50.832;5.390;2022-11-04T17:22:05;11.50;99.90
10270;DHT22;5180;50.832;5.390;2022-11-04T17:24:31;11.50;99.90
10270;DHT22;5180;50.832;5.390;2022-11-04T17:26:57;11.50;99.90
10270;DHT22;5180;50.832;5.390;2022-11-04T17:29:23;11.50;99.90
10270;DHT22;5180;50.832;5.390;2022-11-04T17:31:49;11.50;99.90
10270;DHT22;5180;50.832;5.390;2022-11-04T17:34:14;11.50;99.90
10270;DHT22;5180;50.832;5.390;2022-11-04T17:36:40;11.40;99.90
10270;DHT22;5180;50.832;5.390;2022-11-04T17:39:06;11.40;99.90
10270;DHT22;5180;50.832;5.390;2022-11-04T17:41:31;11.40;99.90
10270;DHT22;5180;50.832;5.390;2022-11-04T17:44:16;11.30;99.90
10270;DHT22;5180;50.832;5.390;2022-11-04T17:46:41;11.30;99.90
10270;DHT22;5180;50.832;5.390;2022-11-04T17:49:15;11.20;99.90
10270;DHT22;5180;50.832;5.390;2022-11-04T17:51:44;11.20;99.90
10270;DHT22;5180;50.832;5.390;2022-11-04T17:54:10;11.10;99.90
10270;DHT22;5180;50.832;5.390;2022-11-04T17:56:37;11.00;99.90
10270;DHT22;5180;50.832;5.390;2022-11-04T17:59:03;10.90;99.90
10270;DHT22;5180;50.832;5.390;2022-11-04T18:01:30;10.80;99.90
10270;DHT22;5180;50.832;5.390;2022-11-04T18:03:56;10.80;99.90
10270;DHT22;5180;50.832;5.390;2022-11-04T18:06:23;10.80;99.90
10270;DHT22;5180;50.832;5.390;2022-11-04T18:08:54;10.70;99.90
10270;DHT22;5180;50.832;5.390;2022-11-04T18:11:22;10.70;99.90
10270;DHT22;5180;50.832;5.390;2022-11-04T18:14:06;10.70;99.90
10270;DHT22;5180;50.832;5.390;2022-11-04T18:16:32;10.60;99.90
10270;DHT22;5180;50.832;5.390;2022-11-04T18:18:59;10.60;99.90
10270;DHT22;5180;50.832;5.390;2022-11-04T18:21:25;10.60;99.90
10270;DHT22;5180;50.832;5.390;2022-11-04T18:23:51;10.60;99.90
10270;DHT22;5180;50.832;5.390;2022-11-04T18:26:17;10.60;99.90
10270;DHT22;5180;50.832;5.390;2022-11-04T18:28:43;10.60;99.90
10270;DHT22;5180;50.832;5.390;2022-11-04T18:31:11;10.60;99.90
10270;DHT22;5180;50.832;5.390;2022-11-04T18:33:37;10.60;99.90
10270;DHT22;5180;50.832;5.390;2022-11-04T18:36:07;10.60;99.90
10270;DHT22;5180;50.832;5.390;2022-11-04T18:38:33;10.60;99.90
10270;DHT22;5180;50.832;5.390;2022-11-04T18:40:59;10.60;99.90
10270;DHT22;5180;50.832;5.390;2022-11-04T18:43:25;10.70;99.90